Time;durP1;ratioP1;P1;durP2;ratioP2;P2;SDS_P1;SDS_P2;PMS_P1;PMS_P2;Temp;Humidity;BMP_temperature;BMP_pressure;BME280_temperature;BME280_humidity;BME280_pressure;Samples;Min_cycle;Max_cycle;Signal;HPM_P1;HPM_P2
2023/12/02 00:03:21;;;;;;;195.37;100.40;;;-4.10;99.90;;;;;;10237951;29;20210;-80
2023/12/02 00:08:24;;;;;;;218.07;109.20;;;-3.80;99.90;;;;;;10251748;28;20293;-80
2023/12/02 00:13:27;;;;;;;209.77;105.87;;;-3.80;99.90;;;;;;10227716;28;20234;-80
2023/12/02 00:18:30;;;;;;;184.30;96.37;;;-3.80;99.90;;;;;;10250857;28;20382;-80
2023/12/02 00:23:32;;;;;;;168.87;91.77;;;-4.00;99.90;;;;;;10231955;28;20238;-81
2023/12/02 00:28:35;;;;;;;198.53;104.97;;;-3.50;99.90;;;;;;10211134;29;20258;-80
2023/12/02 00:33:37;;;;;;;113.73;61.43;;;-3.70;99.90;;;;;;10212220;29;20222;-81
2023/12/02 00:38:40;;;;;;;120.43;62.13;;;-3.40;99.90;;;;;;10222423;28;20234;-81
2023/12/02 00:43:42;;;;;;;100.10;55.23;;;-2.90;99.90;;;;;;10245640;28;20242;-81
2023/12/02 00:48:45;;;;;;;124.83;70.03;;;-2.20;99.90;;;;;;10217762;28;20711;-81
2023/12/02 00:53:48;;;;;;;168.67;89.10;;;-2.60;99.90;;;;;;10248147;28;20262;-80
2023/12/02 00:58:50;;;;;;;145.87;75.77;;;-3.30;99.90;;;;;;10248436;28;20745;-81
2023/12/02 01:03:53;;;;;;;145.63;78.87;;;-3.50;99.90;;;;;;10218527;29;20641;-80
2023/12/02 01:08:55;;;;;;;142.57;76.97;;;-3.60;99.90;;;;;;10243806;28;20257;-81
2023/12/02 01:13:58;;;;;;;143.73;78.23;;;-3.70;99.90;;;;;;10247897;28;20237;-81
2023/12/02 01:19:00;;;;;;;148.17;72.97;;;-3.90;99.90;;;;;;10247263;28;21229;-80
2023/12/02 01:24:03;;;;;;;135.43;69.67;;;-4.00;99.90;;;;;;10232035;28;20238;-81
2023/12/02 01:29:06;;;;;;;116.63;65.27;;;-3.90;99.90;;;;;;10219715;28;20790;-80
2023/12/02 01:34:08;;;;;;;114.97;63.10;;;-4.00;99.90;;;;;;10247049;28;20711;-81
2023/12/02 01:39:12;;;;;;;97.30;52.23;;;-4.80;99.90;;;;;;10229700;28;20317;-82
2023/12/02 01:44:15;;;;;;;99.03;55.23;;;-4.20;99.90;;;;;;10206689;29;20242;-81
2023/12/02 01:49:19;;;;;;;113.07;60.27;;;-3.90;99.90;;;;;;10232176;28;20258;-81
2023/12/02 01:54:22;;;;;;;138.57;68.43;;;-4.10;99.90;;;;;;10247642;28;20274;-81
2023/12/02 01:59:24;;;;;;;130.30;69.43;;;-4.20;99.90;;;;;;10245130;28;20696;-81
2023/12/02 02:04:27;;;;;;;151.77;79.77;;;-4.00;99.90;;;;;;10242789;29;20243;-81
2023/12/02 02:09:34;;;;;;;141.03;74.80;;;-4.40;99.90;;;;;;10211711;28;20246;-81
2023/12/02 02:14:37;;;;;;;130.20;69.80;;;-4.40;99.90;;;;;;10226812;28;20608;-81
2023/12/02 02:19:39;;;;;;;142.93;69.50;;;-4.40;99.90;;;;;;10240685;28;20242;-81
2023/12/02 02:24:42;;;;;;;129.23;70.33;;;-4.50;99.90;;;;;;10215095;28;20230;-81
2023/12/02 02:29:44;;;;;;;124.77;67.50;;;-4.70;99.90;;;;;;10204962;29;20659;-81
2023/12/02 02:34:47;;;;;;;97.90;51.27;;;-4.50;99.90;;;;;;10207176;29;20294;-81
2023/12/02 02:39:49;;;;;;;102.53;56.03;;;-3.70;99.90;;;;;;10209258;29;20242;-81
2023/12/02 02:44:52;;;;;;;100.30;52.23;;;-2.70;99.90;;;;;;10232893;28;20243;-81
2023/12/02 02:49:55;;;;;;;103.10;54.43;;;-2.40;99.90;;;;;;10241589;28;20253;-81
2023/12/02 02:54:58;;;;;;;101.67;55.03;;;-2.30;99.90;;;;;;10245750;28;20270;-81
2023/12/02 03:00:00;;;;;;;103.60;53.43;;;-1.70;99.90;;;;;;10212401;28;20270;-81
2023/12/02 03:05:04;;;;;;;100.17;56.37;;;-1.20;99.90;;;;;;10219934;28;20309;-81
2023/12/02 03:10:07;;;;;;;102.87;55.90;;;-0.80;99.90;;;;;;10240582;28;20274;-81
2023/12/02 03:15:10;;;;;;;106.63;54.20;;;-1.10;99.90;;;;;;10239874;28;20292;-81
2023/12/02 03:20:13;;;;;;;104.40;52.93;;;-1.90;99.90;;;;;;10246648;28;20242;-81
2023/12/02 03:25:17;;;;;;;109.73;57.23;;;-2.40;99.90;;;;;;10239439;28;20266;-81
2023/12/02 03:30:19;;;;;;;98.33;53.43;;;-2.90;99.90;;;;;;10245105;28;20262;-81
2023/12/02 03:35:21;;;;;;;108.77;60.13;;;-3.00;99.90;;;;;;10245216;28;20231;-81
2023/12/02 03:40:24;;;;;;;92.97;52.13;;;-3.20;99.90;;;;;;10229527;28;20233;-81
2023/12/02 03:45:26;;;;;;;101.63;57.33;;;-3.50;99.90;;;;;;10220172;28;20238;-81
2023/12/02 03:50:29;;;;;;;88.07;48.77;;;-3.70;99.90;;;;;;10227082;28;20250;-81
2023/12/02 03:55:32;;;;;;;102.97;57.53;;;-3.70;99.90;;;;;;10218789;28;20238;-81
2023/12/02 04:00:35;;;;;;;95.20;54.90;;;-4.70;99.90;;;;;;10252005;28;20265;-81
2023/12/02 04:05:38;;;;;;;86.93;46.83;;;-3.70;99.90;;;;;;10235542;28;20238;-81
2023/12/02 04:10:40;;;;;;;101.80;54.43;;;-3.30;99.90;;;;;;10228659;28;20286;-81
2023/12/02 04:15:46;;;;;;;95.93;53.30;;;-3.40;99.90;;;;;;10233598;28;20230;-81
2023/12/02 04:20:49;;;;;;;90.57;50.73;;;-3.50;99.90;;;;;;10228193;28;20250;-81
2023/12/02 04:25:52;;;;;;;92.47;51.13;;;-3.30;99.90;;;;;;10222276;28;20234;-81
2023/12/02 04:30:54;;;;;;;86.20;47.90;;;-3.10;99.90;;;;;;10216044;28;20799;-81
2023/12/02 04:35:57;;;;;;;78.20;43.70;;;-2.80;99.90;;;;;;10226608;28;20254;-81
2023/12/02 04:40:59;;;;;;;85.87;48.93;;;-2.40;99.90;;;;;;10250606;28;20241;-81
2023/12/02 04:46:02;;;;;;;92.03;49.33;;;-2.30;99.90;;;;;;10218405;28;20771;-81
2023/12/02 04:51:04;;;;;;;89.90;49.17;;;-2.50;99.90;;;;;;10210665;29;20325;-81
2023/12/02 04:56:07;;;;;;;81.93;44.70;;;-2.40;99.90;;;;;;10210308;29;20238;-81
2023/12/02 05:01:10;;;;;;;84.73;48.20;;;-2.30;99.90;;;;;;10208642;29;20704;-81
2023/12/02 05:06:16;;;;;;;79.10;44.60;;;-2.40;99.90;;;;;;10218522;28;20766;-81
2023/12/02 05:11:21;;;;;;;94.30;48.00;;;-2.40;99.90;;;;;;10248791;28;20258;-80
2023/12/02 05:16:24;;;;;;;81.57;44.80;;;-2.10;99.90;;;;;;10231219;28;20262;-81
2023/12/02 05:21:26;;;;;;;81.00;45.40;;;-2.00;99.90;;;;;;10209595;29;20375;-81
2023/12/02 05:26:29;;;;;;;77.20;43.60;;;-1.50;99.90;;;;;;10209408;29;20243;-81
2023/12/02 05:31:31;;;;;;;80.37;43.70;;;-1.00;99.90;;;;;;10209124;28;20756;-81
2023/12/02 05:36:34;;;;;;;79.27;41.40;;;-1.40;99.90;;;;;;10212499;28;20657;-81
2023/12/02 05:41:40;;;;;;;71.80;40.30;;;-0.90;99.90;;;;;;10230453;28;20239;-81
2023/12/02 05:46:43;;;;;;;84.23;42.90;;;-0.70;99.90;;;;;;10219995;28;20238;-81
2023/12/02 05:51:45;;;;;;;87.50;45.43;;;-1.00;99.90;;;;;;10245393;28;20730;-81
2023/12/02 05:56:48;;;;;;;78.47;43.67;;;-1.20;99.90;;;;;;10246304;28;20242;-81
2023/12/02 06:01:51;;;;;;;94.00;52.90;;;-1.30;99.90;;;;;;10207603;29;20234;-81
2023/12/02 06:06:53;;;;;;;60.83;34.87;;;-1.20;99.90;;;;;;10205974;29;20270;-81
2023/12/02 06:11:56;;;;;;;76.30;40.27;;;-1.20;99.90;;;;;;10207279;29;20234;-81
2023/12/02 06:16:58;;;;;;;79.23;41.20;;;-1.00;99.90;;;;;;10207720;29;20242;-81
2023/12/02 06:22:01;;;;;;;126.60;71.13;;;-1.00;99.90;;;;;;10206916;29;20258;-81
2023/12/02 06:27:03;;;;;;;69.10;40.87;;;-0.80;99.90;;;;;;10207106;29;20239;-81
2023/12/02 06:32:06;;;;;;;65.00;35.30;;;-0.90;99.90;;;;;;10206960;29;20700;-81
2023/12/02 06:37:08;;;;;;;78.00;43.03;;;-0.90;99.90;;;;;;10211202;28;20278;-81
2023/12/02 06:42:11;;;;;;;77.53;43.20;;;-0.50;99.90;;;;;;10207328;29;20615;-81
2023/12/02 06:47:13;;;;;;;67.73;37.13;;;-0.50;99.90;;;;;;10206537;29;20230;-81
2023/12/02 06:52:16;;;;;;;66.57;38.67;;;-0.70;99.90;;;;;;10206423;29;20274;-81
2023/12/02 06:57:18;;;;;;;62.23;36.10;;;-0.30;99.90;;;;;;10243223;28;20277;-81
2023/12/02 07:02:21;;;;;;;68.97;37.83;;;-0.70;99.90;;;;;;10253432;28;20230;-81
2023/12/02 07:07:23;;;;;;;81.80;40.77;;;-0.80;99.90;;;;;;10254455;28;20277;-81
2023/12/02 07:12:26;;;;;;;80.53;40.70;;;-0.60;99.90;;;;;;10254154;28;20296;-81
2023/12/02 07:17:28;;;;;;;63.40;37.93;;;-0.20;99.90;;;;;;10237705;28;20230;-81
2023/12/02 07:22:30;;;;;;;54.83;33.10;;;0.10;99.90;;;;;;10247590;28;20243;-81
2023/12/02 07:27:33;;;;;;;59.70;35.03;;;0.30;99.90;;;;;;10215121;29;20775;-81
2023/12/02 07:32:36;;;;;;;76.43;42.20;;;0.70;99.90;;;;;;10239830;28;20258;-81
2023/12/02 07:37:39;;;;;;;88.03;46.73;;;1.30;99.90;;;;;;10252200;28;20269;-81
2023/12/02 07:42:42;;;;;;;91.03;48.73;;;1.00;99.90;;;;;;10235509;28;20296;-81
2023/12/02 07:47:44;;;;;;;82.87;41.97;;;0.80;99.90;;;;;;10243186;28;20278;-81
2023/12/02 07:52:47;;;;;;;77.97;43.77;;;0.80;99.90;;;;;;10214690;29;21110;-81
2023/12/02 07:57:49;;;;;;;72.03;37.57;;;1.00;99.90;;;;;;10224414;28;20347;-81
2023/12/02 08:02:52;;;;;;;79.00;40.73;;;1.00;99.90;;;;;;10215569;29;20246;-81
2023/12/02 08:07:54;;;;;;;73.87;37.30;;;1.30;99.90;;;;;;10211910;29;20294;-81
2023/12/02 08:12:57;;;;;;;47.97;26.00;;;1.30;99.90;;;;;;10212700;29;20290;-81
2023/12/02 08:17:59;;;;;;;76.37;41.87;;;2.40;99.90;;;;;;10212073;29;20274;-81
2023/12/02 08:23:02;;;;;;;68.33;38.57;;;3.10;99.90;;;;;;10211602;29;20250;-81
2023/12/02 08:28:04;;;;;;;73.23;39.43;;;3.10;99.90;;;;;;10247460;28;20253;-80
2023/12/02 08:33:07;;;;;;;65.17;37.03;;;2.80;99.90;;;;;;10248459;28;20631;-81
2023/12/02 08:38:10;;;;;;;73.80;37.83;;;2.70;99.90;;;;;;10221493;29;20239;-81
2023/12/02 08:43:12;;;;;;;57.33;33.93;;;2.50;99.90;;;;;;10221560;28;20235;-81
2023/12/02 08:48:15;;;;;;;80.67;45.00;;;2.00;99.90;;;;;;10224957;28;20705;-81
2023/12/02 08:53:18;;;;;;;79.90;40.97;;;-0.50;99.90;;;;;;10239065;28;21026;-82
2023/12/02 08:58:20;;;;;;;79.90;42.17;;;-1.00;99.90;;;;;;10247992;28;20712;-81
2023/12/02 09:03:23;;;;;;;58.07;29.57;;;-1.20;99.90;;;;;;10249582;28;20245;-81
2023/12/02 09:08:25;;;;;;;61.17;29.93;;;-1.00;99.90;;;;;;10246855;28;20325;-81
2023/12/02 09:13:40;;;;;;;65.50;33.50;;;-0.30;99.90;;;;;;10221446;29;20234;-81
2023/12/02 09:18:43;;;;;;;56.77;28.70;;;0.60;99.90;;;;;;10208982;29;20297;-81
2023/12/02 09:23:47;;;;;;;54.17;29.87;;;0.80;99.90;;;;;;10209123;29;20274;-80
2023/12/02 09:28:51;;;;;;;68.47;35.53;;;1.20;99.90;;;;;;10232329;28;20309;-80
2023/12/02 09:34:05;;;;;;;66.00;35.83;;;1.30;99.90;;;;;;10242608;28;20254;-81
2023/12/02 09:39:08;;;;;;;65.40;35.70;;;1.40;99.90;;;;;;10240877;28;20234;-81
2023/12/02 09:44:28;;;;;;;73.87;36.63;;;1.30;99.90;;;;;;10206977;29;20239;-81
2023/12/02 09:49:51;;;;;;;59.80;31.10;;;1.70;99.90;;;;;;10242702;28;20286;-82
2023/12/02 09:54:53;;;;;;;57.27;31.03;;;1.90;99.90;;;;;;10236021;29;20728;-81
2023/12/02 10:00:15;;;;;;;56.67;29.67;;;1.90;99.90;;;;;;10235441;29;20230;-81
2023/12/02 10:05:18;;;;;;;55.20;29.63;;;1.90;99.90;;;;;;10210177;29;20230;-81
2023/12/02 10:10:25;;;;;;;60.40;32.10;;;2.30;99.90;;;;;;10246826;28;20253;-81
2023/12/02 10:15:32;;;;;;;63.87;31.80;;;2.20;99.90;;;;;;10245653;28;20234;-81
2023/12/02 10:20:38;;;;;;;52.30;28.53;;;2.50;99.90;;;;;;10240192;28;20296;-80
2023/12/02 10:25:45;;;;;;;54.23;27.30;;;2.70;99.90;;;;;;10243730;28;20226;-80
2023/12/02 10:30:51;;;;;;;74.73;39.30;;;2.90;99.90;;;;;;10244263;28;20266;-80
2023/12/02 10:36:04;;;;;;;65.83;35.03;;;2.80;99.90;;;;;;10237269;28;20241;-81
2023/12/02 10:41:27;;;;;;;86.97;43.60;;;2.80;99.90;;;;;;10238156;28;20241;-81
2023/12/02 10:46:32;;;;;;;71.93;35.60;;;2.60;99.90;;;;;;10221131;29;20304;-81
2023/12/02 10:51:39;;;;;;;101.23;47.30;;;2.50;99.90;;;;;;10245331;28;20296;-81
2023/12/02 10:56:46;;;;;;;87.47;41.23;;;2.00;99.90;;;;;;10216815;28;20680;-80
2023/12/02 11:01:58;;;;;;;70.50;36.23;;;1.60;99.90;;;;;;10241366;29;20250;-78
2023/12/02 11:07:07;;;;;;;85.03;41.67;;;1.90;99.90;;;;;;10237034;29;20207;-79
2023/12/02 11:12:32;;;;;;;83.60;38.77;;;2.00;99.90;;;;;;10206012;29;20309;-79
2023/12/02 11:17:53;;;;;;;94.07;43.17;;;2.00;99.90;;;;;;10212727;29;20234;-80
2023/12/02 11:22:59;;;;;;;75.97;39.40;;;1.60;99.90;;;;;;10206306;29;20367;-79
2023/12/02 11:28:16;;;;;;;97.80;55.60;;;1.80;99.90;;;;;;10206060;29;20784;-79
2023/12/02 11:33:36;;;;;;;93.10;51.13;;;1.30;99.90;;;;;;10224210;28;20998;-78
2023/12/02 11:38:54;;;;;;;92.23;43.63;;;-0.20;99.90;;;;;;10230409;29;20292;-78
2023/12/02 11:44:09;;;;;;;67.67;31.23;;;-0.80;99.90;;;;;;10231343;28;20293;-78
2023/12/02 11:49:33;;;;;;;53.13;27.13;;;-0.20;99.90;;;;;;10215861;29;20254;-78
2023/12/02 11:55:05;;;;;;;82.07;36.57;;;0.40;99.90;;;;;;10249353;28;20257;-80
2023/12/02 12:00:22;;;;;;;69.00;33.97;;;0.70;99.90;;;;;;10250821;28;20282;-79
2023/12/02 12:05:37;;;;;;;78.67;36.43;;;1.30;99.90;;;;;;10228956;28;20640;-79
2023/12/02 12:10:40;;;;;;;90.17;42.60;;;1.40;99.90;;;;;;10229060;28;20664;-79
2023/12/02 12:15:43;;;;;;;76.07;35.83;;;1.40;99.90;;;;;;10239660;28;20686;-79
2023/12/02 12:20:47;;;;;;;100.77;48.27;;;1.50;99.90;;;;;;10218776;28;20238;-80
2023/12/02 12:25:50;;;;;;;74.83;36.77;;;1.80;99.90;;;;;;10213918;29;20234;-80
2023/12/02 12:30:53;;;;;;;80.67;38.63;;;1.70;99.90;;;;;;10239126;28;20317;-80
2023/12/02 12:35:55;;;;;;;72.87;36.20;;;1.80;99.90;;;;;;10234686;28;20271;-79
2023/12/02 12:40:58;;;;;;;63.10;30.23;;;1.90;99.90;;;;;;10233437;28;20234;-81
2023/12/02 12:46:00;;;;;;;100.73;51.70;;;1.80;99.90;;;;;;10237385;28;20290;-79
2023/12/02 12:51:07;;;;;;;42.50;22.07;;;1.80;99.90;;;;;;10224239;28;20799;-79
2023/12/02 12:56:11;;;;;;;71.67;37.30;;;1.50;99.90;;;;;;10207701;29;20278;-79
2023/12/02 13:01:15;;;;;;;98.63;44.67;;;3.20;99.90;;;;;;10208706;29;20302;-79
2023/12/02 13:06:34;;;;;;;92.87;46.73;;;2.90;99.90;;;;;;10208589;29;20254;-79
2023/12/02 13:11:57;;;;;;;83.80;44.43;;;2.50;99.90;;;;;;10209201;29;20577;-79
2023/12/02 13:17:03;;;;;;;100.23;47.03;;;2.40;99.90;;;;;;10208030;29;20226;-79
2023/12/02 13:22:06;;;;;;;95.17;45.47;;;2.00;99.90;;;;;;10208336;29;20289;-80
2023/12/02 13:27:29;;;;;;;107.80;65.07;;;2.10;99.90;;;;;;10209003;29;20266;-79
2023/12/02 13:32:35;;;;;;;80.87;39.63;;;1.90;99.90;;;;;;10208496;29;20266;-79
2023/12/02 13:37:59;;;;;;;81.63;35.80;;;1.90;99.90;;;;;;10207516;29;20317;-79
2023/12/02 13:43:06;;;;;;;68.30;31.90;;;1.60;99.90;;;;;;10208966;29;20290;-79
2023/12/02 13:48:51;;;;;;;79.60;35.43;;;1.60;99.90;;;;;;10208370;29;20309;-79
2023/12/02 13:54:17;;;;;;;67.10;31.60;;;1.30;99.90;;;;;;10207256;29;20263;-80
2023/12/02 13:59:31;;;;;;;46.20;22.50;;;1.10;99.90;;;;;;10226776;28;20262;-79
2023/12/02 14:04:42;;;;;;;65.50;33.33;;;1.90;99.90;;;;;;10231115;28;20293;-79
2023/12/02 14:09:45;;;;;;;74.03;34.33;;;2.10;99.90;;;;;;10244627;28;20253;-79
2023/12/02 14:14:58;;;;;;;71.83;34.60;;;2.00;99.90;;;;;;10234003;28;20239;-78
2023/12/02 14:20:27;;;;;;;73.63;35.30;;;1.80;99.90;;;;;;10207548;29;20658;-77
2023/12/02 14:26:05;;;;;;;65.23;30.47;;;1.70;99.90;;;;;;10224400;28;20246;-78
2023/12/02 14:31:49;;;;;;;74.37;36.03;;;1.30;99.90;;;;;;10207025;29;20431;-77
2023/12/02 14:37:37;;;;;;;65.07;31.50;;;0.80;99.90;;;;;;10119380;29;20291;-77
2023/12/02 14:42:48;;;;;;;76.33;34.23;;;0.90;99.90;;;;;;10046001;29;20257;-77
2023/12/02 14:48:07;;;;;;;72.53;32.17;;;0.80;99.90;;;;;;10083245;29;20244;-77
2023/12/02 14:53:11;;;;;;;97.93;46.80;;;0.70;99.90;;;;;;10083294;29;20377;-77
2023/12/02 14:58:26;;;;;;;61.53;31.17;;;1.00;99.90;;;;;;10068819;29;20301;-77
2023/12/02 15:03:30;;;;;;;62.53;29.47;;;1.40;99.90;;;;;;10050701;29;20360;-77
2023/12/02 15:08:40;;;;;;;44.93;23.70;;;1.40;99.90;;;;;;10083537;29;20282;-79
2023/12/02 15:13:43;;;;;;;36.47;20.30;;;1.50;99.90;;;;;;9801878;29;10000360;-79
2023/12/02 15:18:46;;;;;;;46.70;23.03;;;1.20;99.90;;;;;;10247728;28;20242;-79
2023/12/02 15:23:49;;;;;;;45.57;22.97;;;1.60;99.90;;;;;;10248896;28;20699;-79
2023/12/02 15:28:53;;;;;;;49.67;25.70;;;1.80;99.90;;;;;;10248048;28;20234;-78
2023/12/02 15:33:55;;;;;;;46.53;24.67;;;1.80;99.90;;;;;;10249107;28;20253;-79
2023/12/02 15:38:59;;;;;;;53.73;25.33;;;1.80;99.90;;;;;;10211678;29;20309;-79
2023/12/02 15:44:03;;;;;;;54.50;26.87;;;1.80;99.90;;;;;;10224656;28;20233;-79
2023/12/02 15:49:06;;;;;;;59.63;27.77;;;1.90;99.90;;;;;;10219332;29;20234;-79
2023/12/02 15:54:12;;;;;;;68.43;30.80;;;1.90;99.90;;;;;;10227884;28;20266;-79
2023/12/02 15:59:14;;;;;;;55.00;26.87;;;1.90;99.90;;;;;;10230632;28;20231;-79
2023/12/02 16:04:17;;;;;;;54.03;24.73;;;1.90;99.90;;;;;;10210038;29;20238;-79
2023/12/02 16:09:22;;;;;;;42.87;21.10;;;1.70;99.90;;;;;;10234854;28;20281;-79
2023/12/02 16:14:25;;;;;;;58.83;25.80;;;2.10;99.90;;;;;;10249001;28;20230;-78
2023/12/02 16:19:29;;;;;;;37.50;19.13;;;2.00;99.90;;;;;;10245860;28;20273;-79
2023/12/02 16:24:32;;;;;;;45.03;21.07;;;2.40;99.90;;;;;;10234213;28;20242;-79
2023/12/02 16:29:35;;;;;;;42.47;20.23;;;2.20;99.90;;;;;;10216274;29;20235;-79
2023/12/02 16:34:40;;;;;;;41.10;20.57;;;2.30;99.90;;;;;;10210276;29;20378;-79
2023/12/02 16:39:45;;;;;;;49.53;28.33;;;2.30;99.90;;;;;;10210990;29;20564;-79
2023/12/02 16:44:47;;;;;;;36.70;20.13;;;2.40;99.90;;;;;;10266104;28;20670;-78
2023/12/02 16:49:51;;;;;;;41.77;22.03;;;2.50;99.90;;;;;;10257958;28;20332;-78
2023/12/02 16:54:53;;;;;;;36.33;19.43;;;2.20;99.90;;;;;;10229637;29;20315;-78
2023/12/02 16:59:59;;;;;;;38.27;19.37;;;2.10;99.90;;;;;;10210080;29;20238;-78
2023/12/02 17:05:03;;;;;;;45.87;23.83;;;2.20;99.90;;;;;;10231993;28;20238;-78
2023/12/02 17:10:49;;;;;;;42.87;22.30;;;2.40;99.90;;;;;;10240960;28;20336;-78
2023/12/02 17:15:52;;;;;;;48.07;25.40;;;3.30;99.90;;;;;;10249225;28;20233;-78
2023/12/02 17:20:54;;;;;;;41.10;23.60;;;3.60;99.90;;;;;;10248980;28;20242;-78
2023/12/02 17:25:58;;;;;;;43.80;22.30;;;3.10;99.90;;;;;;10248694;28;20233;-78
2023/12/02 17:31:01;;;;;;;33.07;19.77;;;2.90;99.90;;;;;;10247213;28;20312;-77
2023/12/02 17:36:05;;;;;;;40.80;22.37;;;2.70;99.90;;;;;;10248393;28;20242;-77
2023/12/02 17:41:08;;;;;;;33.47;19.20;;;2.50;99.90;;;;;;9892964;28;9999992;-78
2023/12/02 17:46:11;;;;;;;39.33;21.77;;;2.40;99.90;;;;;;10204503;29;20238;-78
2023/12/02 17:51:13;;;;;;;42.97;21.30;;;2.40;99.90;;;;;;10225684;29;20289;-77
2023/12/02 17:56:17;;;;;;;42.80;21.77;;;2.30;99.90;;;;;;10243807;29;20269;-77
2023/12/02 18:01:19;;;;;;;42.87;23.10;;;2.20;99.90;;;;;;10244301;29;20679;-77
2023/12/02 18:06:21;;;;;;;40.27;21.47;;;2.00;99.90;;;;;;10244123;29;20245;-78
2023/12/02 18:11:24;;;;;;;50.20;23.77;;;2.00;99.90;;;;;;10246116;29;20317;-78
2023/12/02 18:16:28;;;;;;;36.47;20.90;;;2.00;99.90;;;;;;10246834;28;20230;-78
2023/12/02 18:21:31;;;;;;;49.63;23.80;;;1.90;99.90;;;;;;9879750;28;9999901;-78
2023/12/02 18:26:34;;;;;;;53.90;24.57;;;2.20;99.90;;;;;;10245555;23;10000351;-78
2023/12/02 18:31:38;;;;;;;35.67;19.47;;;2.30;99.90;;;;;;10084446;29;20268;-79
2023/12/02 18:36:41;;;;;;;43.27;22.97;;;2.40;99.90;;;;;;10087477;29;20694;-79
2023/12/02 18:41:47;;;;;;;44.07;25.43;;;2.40;99.90;;;;;;10089129;29;20240;-78
2023/12/02 18:46:49;;;;;;;40.27;21.43;;;2.30;99.90;;;;;;10089282;29;20304;-77
2023/12/02 18:51:52;;;;;;;38.67;20.17;;;2.20;99.90;;;;;;10101861;29;20299;-78
2023/12/02 18:56:55;;;;;;;52.10;23.30;;;2.50;99.90;;;;;;10119107;29;20232;-79
2023/12/02 19:01:57;;;;;;;39.43;20.60;;;3.40;99.90;;;;;;10135078;29;20303;-79
2023/12/02 19:07:00;;;;;;;58.73;31.33;;;3.40;99.90;;;;;;9787012;29;9999809;-79
2023/12/02 19:12:02;;;;;;;67.27;34.63;;;1.70;99.90;;;;;;10127753;29;20272;-78
2023/12/02 19:17:05;;;;;;;40.90;19.30;;;0.20;99.90;;;;;;10141709;29;20818;-80
2023/12/02 19:22:08;;;;;;;47.80;23.93;;;0.30;99.90;;;;;;10125724;29;20300;-79
2023/12/02 19:27:10;;;;;;;42.53;19.00;;;1.00;99.90;;;;;;10123901;29;20300;-78
2023/12/02 19:32:13;;;;;;;50.37;24.13;;;1.70;99.90;;;;;;10130179;29;20256;-78
2023/12/02 19:37:16;;;;;;;47.70;21.87;;;2.20;99.90;;;;;;10130164;29;20236;-79
2023/12/02 19:42:18;;;;;;;32.90;16.33;;;2.40;99.90;;;;;;10130406;29;20307;-78
2023/12/02 19:47:21;;;;;;;40.97;20.10;;;2.80;99.90;;;;;;10130169;29;20291;-79
2023/12/02 19:52:24;;;;;;;34.57;18.77;;;3.40;99.90;;;;;;10131433;29;20366;-79
2023/12/02 19:57:26;;;;;;;36.83;17.30;;;3.40;99.90;;;;;;10128115;29;20698;-79
2023/12/02 20:02:29;;;;;;;31.80;14.57;;;3.50;99.90;;;;;;10096478;29;20653;-78
2023/12/02 20:07:31;;;;;;;35.73;16.33;;;3.90;99.90;;;;;;10151196;29;20768;-79
2023/12/02 20:12:34;;;;;;;31.43;14.87;;;4.20;99.90;;;;;;10155679;29;20272;-79
2023/12/02 20:17:36;;;;;;;35.73;17.63;;;4.30;99.90;;;;;;10123717;29;20694;-79
2023/12/02 20:22:39;;;;;;;35.27;18.13;;;4.70;99.90;;;;;;10128673;29;20296;-78
2023/12/02 20:27:41;;;;;;;35.13;19.00;;;5.00;99.90;;;;;;10129439;29;20269;-78
2023/12/02 20:32:45;;;;;;;35.03;17.10;;;4.70;99.90;;;;;;10128946;29;20256;-78
2023/12/02 20:37:47;;;;;;;46.77;20.17;;;5.20;99.90;;;;;;10127549;29;20726;-78
2023/12/02 20:42:50;;;;;;;39.17;17.43;;;5.30;99.90;;;;;;10108408;29;20246;-79
2023/12/02 20:47:52;;;;;;;44.37;22.03;;;6.10;99.90;;;;;;10106583;29;20522;-78
2023/12/02 20:52:55;;;;;;;43.33;20.67;;;6.60;99.90;;;;;;10128093;29;20257;-79
2023/12/02 20:57:57;;;;;;;45.87;21.67;;;6.50;99.90;;;;;;10127529;29;20244;-79
2023/12/02 21:03:00;;;;;;;37.70;18.63;;;5.70;99.90;;;;;;10124784;29;20232;-79
2023/12/02 21:08:03;;;;;;;35.13;17.13;;;5.00;99.90;;;;;;10160288;29;20787;-79
2023/12/02 21:13:09;;;;;;;37.20;19.03;;;5.40;99.90;;;;;;10137034;29;20291;-79
2023/12/02 21:18:12;;;;;;;44.17;19.80;;;5.40;99.90;;;;;;10127496;29;20238;-79
2023/12/02 21:23:15;;;;;;;37.73;20.40;;;6.10;99.90;;;;;;10125463;29;20673;-79
2023/12/02 21:28:17;;;;;;;21.60;11.93;;;6.90;99.90;;;;;;10124917;29;20263;-78
2023/12/02 21:33:20;;;;;;;16.20;9.37;;;8.00;99.90;;;;;;10126254;29;20677;-79
2023/12/02 21:38:42;;;;;;;29.93;15.90;;;8.40;99.90;;;;;;10126787;29;20247;-78
2023/12/02 21:43:49;;;;;;;23.60;11.90;;;7.10;99.90;;;;;;10144108;29;20980;-78
2023/12/02 21:48:59;;;;;;;35.63;18.07;;;7.20;99.90;;;;;;10145821;29;20290;-79
2023/12/02 21:54:03;;;;;;;30.57;18.07;;;7.80;99.90;;;;;;10142453;29;20324;-78
2023/12/02 21:59:08;;;;;;;30.53;15.40;;;7.50;99.90;;;;;;10142378;29;20287;-80
2023/12/02 22:04:12;;;;;;;19.37;10.57;;;6.50;99.90;;;;;;10123764;29;20228;-78
2023/12/02 22:09:26;;;;;;;38.43;19.53;;;6.30;99.90;;;;;;10138675;29;20238;-78
2023/12/02 22:14:31;;;;;;;38.50;18.57;;;6.70;99.90;;;;;;10151068;29;20721;-78
2023/12/02 22:19:34;;;;;;;50.80;30.07;;;6.20;99.90;;;;;;10125568;29;20229;-79
2023/12/02 22:24:38;;;;;;;29.37;15.00;;;4.60;99.90;;;;;;10122599;29;20961;-79
2023/12/02 22:29:42;;;;;;;30.63;16.97;;;3.20;99.90;;;;;;10126509;29;20276;-78
2023/12/02 22:34:45;;;;;;;25.97;12.93;;;3.70;99.90;;;;;;10125522;29;20264;-78
2023/12/02 22:39:47;;;;;;;35.37;19.13;;;4.30;99.90;;;;;;10128502;29;20232;-78
2023/12/02 22:44:50;;;;;;;26.33;15.07;;;4.50;99.90;;;;;;10144250;29;20251;-79
2023/12/02 22:49:52;;;;;;;19.67;9.03;;;5.00;99.90;;;;;;10168901;29;20235;-78
2023/12/02 22:54:55;;;;;;;26.60;13.30;;;5.60;99.90;;;;;;10142718;29;20350;-78
2023/12/02 22:59:57;;;;;;;27.73;15.80;;;6.20;99.90;;;;;;10142883;29;20218;-78
2023/12/02 23:05:02;;;;;;;24.93;12.70;;;6.30;99.90;;;;;;10146121;29;20252;-79
2023/12/02 23:10:22;;;;;;;25.67;13.40;;;6.20;99.90;;;;;;10147507;29;20690;-79
2023/12/02 23:15:37;;;;;;;28.73;14.23;;;6.50;99.90;;;;;;10128676;29;20300;-78
2023/12/02 23:20:47;;;;;;;28.20;15.97;;;7.00;99.90;;;;;;10135494;29;20627;-78
2023/12/02 23:25:50;;;;;;;24.43;14.17;;;6.30;99.90;;;;;;10145368;29;20290;-79
2023/12/02 23:30:52;;;;;;;23.07;13.13;;;6.60;99.90;;;;;;10139531;29;20262;-78
2023/12/02 23:35:55;;;;;;;20.77;12.37;;;6.20;99.90;;;;;;10142915;29;20284;-78
2023/12/02 23:40:58;;;;;;;24.37;13.03;;;6.30;99.90;;;;;;10147312;29;20638;-78
2023/12/02 23:46:00;;;;;;;18.80;10.87;;;6.20;99.90;;;;;;10134829;29;20244;-78
2023/12/02 23:51:04;;;;;;;20.50;9.37;;;6.40;99.90;;;;;;10140072;29;20241;-78
2023/12/02 23:56:07;;;;;;;30.00;16.50;;;6.30;99.90;;;;;;10147924;29;20306;-78
